Aviation meteorology

METAR


Last update: 04 Jul 2020 14:20:00
241
SAHU41 HASM 041430
METAR LHSM 041415Z AUTO 36008KT 330V030 CAVOK 27/10 Q1017 NOSIG

TAF


Last update: 04 Jul 2020 14:05:00
240
FCHU99 LHSM 041400
TAF LHSM 041400Z NIL